General Heriberto Jara International Airport
MMVR : rendu visible

Aérodrome :











RETROUVEZ-NOUS SUR...

 
LOGIN :

S'inscrire | Disclaimer

   EN    FR    IT 

 









Légende :    VFR   VFR Marginal   IFR   IFR Intensif   IFR Très Intensif
Visi : 
Plafond : 
>= 8 km
>= 3000ft
5 à 8 km
1000 à 3000 ft
1500m à 5 km
500 à 1000 ft
800 à 1500m
200 à 500 ft
< 800m
< 200 ft
Symboles :   Orages  Brouillard  Fortes neiges  Fortes précipitations  Vent > 20 kt






- Altitude de l'aérodrome : 90 ft
- Code IATA : VER


MMVR - General Heriberto Jara International

DERNIER METAR :
  • 311945Z 02020KT 7SM FEW010 OVC025 28/22 A2992 RMK 8/8// HZY BINOVC

METARs EXPIRÉS :
  • 311844Z 04022KT 7SM FEW010 OVC020 31/22 A2993 RMK 8/8// HZY BINOVC
  • 311744Z 02023KT 7SM FEW010 BKN020 29/21 A2995 RMK SLP134 57004 919 8/800 HZY ISOL AC

TAF TAF MMVR
Valide du 31 à 18h jusqu'au 01 à 18h UTC


311619Z 3118/0118 36010KT P6SM SCT010 BKN030 TX30/3119Z TN23/0112Z
BECMG 3120/3121 36015KT BKN012
TEMPO 3122/0102 5SM TSRA BKN012CB BKN070
FM010300 02010KT 6SM HZ BKN012
PROB40 0109/0113 6SM -RA BKN012
FM011700 36012KT 6SM HZ SCT012
FIR MMFR / Amérique du Nord



MET'MAP, la Météo Aéronautique d'un coup d'oeil ! - Copyright ORBIFLY Décembre 2007 - Disclaimer

ORBIFLY MET'MAP TEAM :

Programmation & Développement : Alexandra Zaïnal
Sur une idée originale de : Baudouin d'Aumeries
Assistance à la programmation : Marc-Olivier Méhu
Soutien technique & logistique : Manuel Goepfert

Contact : metmap@orbifly.com




SOURCES & CREDITS :

   NOAA       Earth
Advisory